createdAt,value
2023-04-12T00:00:38.824Z,99271.27
2023-04-12T00:03:10.528Z,99266.83
2023-04-12T00:05:39.385Z,99258.21
2023-04-12T00:08:11.760Z,99252.09
2023-04-12T00:10:42.001Z,99249.63
2023-04-12T00:13:10.667Z,99251.64
2023-04-12T00:15:46.146Z,99246.64
2023-04-12T00:18:14.506Z,99243.66
2023-04-12T00:20:43.723Z,99239.40
2023-04-12T00:23:17.807Z,99230.84
2023-04-12T00:25:47.455Z,99225.52
2023-04-12T00:28:16.304Z,99222.76
2023-04-12T00:30:46.624Z,99221.14
2023-04-12T00:33:15.305Z,99225.57
2023-04-12T00:35:44.130Z,99227.65
2023-04-12T00:38:15.056Z,99229.44
2023-04-12T00:40:43.546Z,99230.36
2023-04-12T00:43:19.153Z,99228.75
2023-04-12T00:45:47.935Z,99225.90
2023-04-12T00:48:19.277Z,99222.48
2023-04-12T00:50:49.703Z,99226.52
2023-04-12T00:53:18.136Z,99223.50
2023-04-12T00:55:47.131Z,99219.84
2023-04-12T00:58:16.741Z,99218.77
2023-04-12T01:00:50.648Z,99219.97
2023-04-12T01:03:25.727Z,99216.78
2023-04-12T01:06:36.585Z,99219.46
2023-04-12T01:09:17.586Z,99216.77
2023-04-12T01:11:56.971Z,99214.34
2023-04-12T01:14:59.257Z,99214.91
2023-04-12T01:17:31.032Z,99214.17
2023-04-12T01:20:19.410Z,99216.98
2023-04-12T01:23:09.602Z,99216.16
2023-04-12T01:25:46.726Z,99215.87
2023-04-12T01:28:23.346Z,99213.36
2023-04-12T01:30:52.804Z,99209.89
2023-04-12T01:33:24.148Z,99205.92
2023-04-12T01:35:52.534Z,99198.56
2023-04-12T01:38:21.098Z,99197.91
2023-04-12T01:40:51.223Z,99196.38
2023-04-12T01:43:21.264Z,99189.77
2023-04-12T01:45:49.882Z,99189.16
2023-04-12T01:48:19.438Z,99183.55
2023-04-12T01:51:16.585Z,99177.59
2023-04-12T01:54:11.444Z,99178.39
2023-04-12T01:56:44.117Z,99175.75
2023-04-12T01:59:16.262Z,99171.36
2023-04-12T02:01:45.049Z,99167.70
2023-04-12T02:04:13.693Z,99168.73
2023-04-12T02:06:42.399Z,99165.59
2023-04-12T02:09:17.428Z,99161.55
2023-04-12T02:11:48.864Z,99162.13
2023-04-12T02:14:22.221Z,99154.83
2023-04-12T02:16:51.178Z,99156.31
2023-04-12T02:19:24.732Z,99153.11
2023-04-12T02:21:54.257Z,99151.49
2023-04-12T02:24:27.706Z,99149.29
2023-04-12T02:26:58.171Z,99146.00
2023-04-12T02:29:27.432Z,99144.59
2023-04-12T02:31:55.886Z,99146.30
2023-04-12T02:34:26.005Z,99142.00
2023-04-12T02:37:05.136Z,99140.00
2023-04-12T02:39:34.844Z,99137.95
2023-04-12T02:42:07.429Z,99138.74
2023-04-12T02:44:36.152Z,99136.94
2023-04-12T02:47:16.452Z,99134.65
2023-04-12T02:49:47.304Z,99131.64
2023-04-12T02:52:17.320Z,99129.45
2023-04-12T02:54:59.114Z,99129.34
2023-04-12T02:57:27.907Z,99127.71
2023-04-12T03:00:06.019Z,99124.89
2023-04-12T03:02:42.785Z,99124.15
2023-04-12T03:05:17.925Z,99125.59
2023-04-12T03:07:53.641Z,99123.52
2023-04-12T03:10:26.921Z,99123.73
2023-04-12T03:13:06.414Z,99121.05
2023-04-12T03:15:40.681Z,99121.73
2023-04-12T03:18:12.730Z,99118.07
2023-04-12T03:20:49.670Z,99117.84
2023-04-12T03:23:27.888Z,99118.70
2023-04-12T03:26:06.640Z,99118.59
2023-04-12T03:28:42.545Z,99114.82
2023-04-12T03:31:13.000Z,99109.29
2023-04-12T03:33:45.053Z,99107.07
2023-04-12T03:36:25.517Z,99101.08
2023-04-12T03:38:57.481Z,99097.96
2023-04-12T03:41:30.359Z,99095.52
2023-04-12T03:44:00.069Z,99092.95
2023-04-12T03:46:29.529Z,99090.20
2023-04-12T03:49:00.014Z,99090.51
2023-04-12T03:51:30.874Z,99090.36
2023-04-12T03:54:04.822Z,99093.27
2023-04-12T03:56:57.101Z,99094.13
2023-04-12T03:59:46.567Z,99088.14
2023-04-12T04:02:16.221Z,99087.04
2023-04-12T04:04:48.959Z,99085.29
2023-04-12T04:07:26.042Z,99082.83
2023-04-12T04:09:56.271Z,99083.33
2023-04-12T04:12:28.193Z,99082.10
2023-04-12T04:14:59.164Z,99080.73
2023-04-12T04:17:35.012Z,99085.39
2023-04-12T04:20:05.886Z,99086.98
2023-04-12T04:22:38.511Z,99083.38
2023-04-12T04:25:08.376Z,99084.27
2023-04-12T04:27:50.347Z,99085.09
2023-04-12T04:30:19.037Z,99083.45
2023-04-12T04:32:48.568Z,99077.92
2023-04-12T04:35:18.799Z,99078.77
2023-04-12T04:38:01.799Z,99080.10
2023-04-12T04:40:32.829Z,99077.77
2023-04-12T04:43:02.336Z,99078.82
2023-04-12T04:45:38.167Z,99079.33
2023-04-12T04:48:09.683Z,99073.73
2023-04-12T04:50:39.658Z,99074.86
2023-04-12T04:53:08.762Z,99076.17
2023-04-12T04:55:37.849Z,99076.39
2023-04-12T04:58:12.989Z,99071.48
2023-04-12T05:00:45.269Z,99075.23
2023-04-12T05:03:14.422Z,99073.75
2023-04-12T05:05:43.142Z,99077.23
2023-04-12T05:08:11.836Z,99075.29
2023-04-12T05:10:53.555Z,99075.20
2023-04-12T05:13:24.559Z,99071.63
2023-04-12T05:15:53.654Z,99070.06
2023-04-12T05:20:56.250Z,99069.66
2023-04-12T05:23:24.903Z,99068.27
2023-04-12T05:25:58.738Z,99065.39
2023-04-12T05:28:28.147Z,99061.77
2023-04-12T05:30:56.789Z,99060.78
2023-04-12T05:33:45.276Z,99063.48
2023-04-12T05:36:14.191Z,99061.11
2023-04-12T05:38:47.580Z,99062.09
2023-04-12T05:41:17.692Z,99060.56
2023-04-12T05:43:46.277Z,99059.08
2023-04-12T05:46:21.842Z,99054.84
2023-04-12T05:48:51.941Z,99054.31
2023-04-12T05:51:27.824Z,99053.47
2023-04-12T05:54:08.786Z,99053.21
2023-04-12T05:56:39.407Z,99050.77
2023-04-12T05:59:11.475Z,99045.30
2023-04-12T06:01:42.975Z,99043.95
2023-04-12T06:04:11.756Z,99043.77
2023-04-12T06:06:49.111Z,99039.92
2023-04-12T06:09:17.592Z,99039.93
2023-04-12T06:11:46.682Z,99038.71
2023-04-12T06:14:18.751Z,99037.88
2023-04-12T06:16:47.742Z,99039.28
2023-04-12T06:19:19.639Z,99038.48
2023-04-12T06:22:02.028Z,99036.96
2023-04-12T06:24:31.823Z,99031.56
2023-04-12T06:27:00.834Z,99027.21
2023-04-12T06:29:32.878Z,99026.92
2023-04-12T06:32:01.654Z,99028.38
2023-04-12T06:34:34.843Z,99024.66
2023-04-12T06:37:09.026Z,99024.84
2023-04-12T06:39:38.271Z,99021.81
2023-04-12T06:42:14.484Z,99017.80
2023-04-12T06:44:44.657Z,99014.34
2023-04-12T06:47:17.856Z,99014.92
2023-04-12T06:49:47.347Z,99011.95
2023-04-12T06:52:16.236Z,99011.77
2023-04-12T06:54:45.483Z,99010.78
2023-04-12T06:57:15.657Z,99010.04
2023-04-12T06:59:47.420Z,99008.70
2023-04-12T07:02:17.086Z,99007.38
2023-04-12T07:04:46.934Z,99010.36
2023-04-12T07:07:18.491Z,99009.00
2023-04-12T07:09:51.862Z,99006.60
2023-04-12T07:12:20.069Z,99002.63
2023-04-12T07:14:50.401Z,98997.55
2023-04-12T07:17:22.407Z,98996.56
2023-04-12T07:19:52.470Z,99000.43
2023-04-12T07:22:27.402Z,98997.70
2023-04-12T07:24:57.732Z,98994.73
2023-04-12T07:27:26.928Z,98996.47
2023-04-12T07:29:59.302Z,98992.70
2023-04-12T07:32:29.132Z,98994.67
2023-04-12T07:35:00.790Z,98995.83
2023-04-12T07:37:31.009Z,98997.48
2023-04-12T07:39:59.440Z,98993.45
2023-04-12T07:42:30.946Z,98989.19
2023-04-12T07:45:00.375Z,98990.95
2023-04-12T07:47:30.568Z,98992.77
2023-04-12T07:49:59.463Z,98991.88
2023-04-12T07:52:30.711Z,98988.21
2023-04-12T07:54:59.020Z,98989.60
2023-04-12T07:57:29.008Z,98992.58
2023-04-12T07:59:57.797Z,98997.38
2023-04-12T08:02:26.483Z,98998.23
2023-04-12T08:04:56.301Z,98996.92
2023-04-12T08:07:28.161Z,99000.46
2023-04-12T08:09:57.248Z,99001.84
2023-04-12T08:12:25.729Z,98998.52
2023-04-12T08:14:54.109Z,98997.02
2023-04-12T08:17:23.632Z,98997.83
2023-04-12T08:19:52.095Z,98996.12
2023-04-12T08:22:20.473Z,98990.28
2023-04-12T08:24:50.495Z,98987.82
2023-04-12T08:27:19.176Z,98990.89
2023-04-12T08:29:48.080Z,98990.01
2023-04-12T08:32:17.406Z,98987.85
2023-04-12T08:34:46.197Z,98986.28
2023-04-12T08:37:21.715Z,98986.83
2023-04-12T08:39:50.196Z,98987.45
2023-04-12T08:42:18.893Z,98988.32
2023-04-12T08:44:47.766Z,98985.09
2023-04-12T08:47:16.655Z,98986.45
2023-04-12T08:49:49.544Z,98979.29
2023-04-12T08:52:18.038Z,98977.80
2023-04-12T08:54:46.402Z,98974.62
2023-04-12T08:57:15.706Z,98973.61
2023-04-12T08:59:44.091Z,98967.64
2023-04-12T09:02:14.348Z,98967.37
2023-04-12T09:04:47.746Z,98964.05
2023-04-12T09:07:17.428Z,98961.36
2023-04-12T09:09:46.985Z,98958.06
2023-04-12T09:12:20.830Z,98957.11
2023-04-12T09:15:09.868Z,98949.77
2023-04-12T09:17:39.276Z,98953.34
2023-04-12T09:20:16.765Z,98952.20
2023-04-12T09:22:46.897Z,98948.48
2023-04-12T09:25:15.899Z,98950.07
2023-04-12T09:27:48.251Z,98949.65
2023-04-12T09:30:17.824Z,98943.27
2023-04-12T09:33:13.493Z,98945.34
2023-04-12T09:35:43.408Z,98944.74
2023-04-12T09:38:11.821Z,98941.52
2023-04-12T09:40:40.892Z,98941.20
2023-04-12T09:43:09.887Z,98937.75
2023-04-12T09:45:43.393Z,98941.75
2023-04-12T09:48:21.562Z,98934.84
2023-04-12T09:50:50.174Z,98940.90
2023-04-12T09:53:20.405Z,98937.05
2023-04-12T09:55:49.700Z,98938.50
2023-04-12T09:58:19.637Z,98932.92
2023-04-12T10:00:48.204Z,98930.84
2023-04-12T10:03:18.840Z,98929.84
2023-04-12T10:05:48.436Z,98925.65
2023-04-12T10:08:18.153Z,98922.15
2023-04-12T10:10:47.056Z,98923.25
2023-04-12T10:13:16.166Z,98922.39
2023-04-12T10:15:47.191Z,98921.98
2023-04-12T10:18:15.633Z,98918.32
2023-04-12T10:20:47.973Z,98918.89
2023-04-12T10:23:22.347Z,98920.60
2023-04-12T10:25:52.535Z,98925.85
2023-04-12T10:28:23.370Z,98924.15
2023-04-12T10:30:59.405Z,98924.41
2023-04-12T10:33:33.587Z,98922.23
2023-04-12T10:36:12.663Z,98921.56
2023-04-12T10:39:09.622Z,98916.62
2023-04-12T10:41:38.552Z,98919.38
2023-04-12T10:44:24.816Z,98918.63
2023-04-12T10:46:53.747Z,98917.35
2023-04-12T10:49:22.758Z,98917.56
2023-04-12T10:52:15.000Z,98918.70
2023-04-12T10:54:45.437Z,98918.74
2023-04-12T10:57:49.083Z,98918.10
2023-04-12T11:00:20.576Z,98916.67
2023-04-12T11:03:12.471Z,98913.48
2023-04-12T11:06:12.756Z,98913.85
2023-04-12T11:09:27.727Z,98910.77
2023-04-12T11:11:58.941Z,98911.57
2023-04-12T11:14:37.985Z,98911.20
2023-04-12T11:17:09.436Z,98914.00
2023-04-12T11:20:02.511Z,98914.05
2023-04-12T11:22:33.290Z,98911.83
2023-04-12T11:25:04.883Z,98908.23
2023-04-12T11:27:34.881Z,98908.98
2023-04-12T11:30:08.436Z,98905.71
2023-04-12T11:32:41.856Z,98906.35
2023-04-12T11:35:11.401Z,98904.76
2023-04-12T11:37:44.376Z,98904.11
2023-04-12T11:40:13.995Z,98903.37
2023-04-12T11:42:43.692Z,98901.71
2023-04-12T11:45:18.036Z,98903.20
2023-04-12T11:47:48.970Z,98903.11
2023-04-12T11:50:29.283Z,98900.37
2023-04-12T11:53:10.764Z,98901.06
2023-04-12T11:55:39.278Z,98898.14
2023-04-12T11:58:07.500Z,98895.08
2023-04-12T12:00:37.592Z,98897.35
2023-04-12T12:03:09.437Z,98894.17
2023-04-12T12:05:40.527Z,98892.58
2023-04-12T12:08:09.112Z,98892.36
2023-04-12T12:10:51.966Z,98889.95
2023-04-12T12:13:44.581Z,98890.45
2023-04-12T12:16:15.702Z,98884.64
2023-04-12T12:18:50.953Z,98884.05
2023-04-12T12:21:22.031Z,98880.02
2023-04-12T12:23:51.223Z,98879.10
2023-04-12T12:26:28.528Z,98877.62
2023-04-12T12:28:57.902Z,98874.77
2023-04-12T12:31:28.772Z,98876.66
2023-04-12T12:33:58.675Z,98873.63
2023-04-12T12:36:34.008Z,98872.97
2023-04-12T12:39:07.471Z,98869.17
2023-04-12T12:41:36.175Z,98868.44
2023-04-12T12:44:04.887Z,98864.27
2023-04-12T12:46:50.739Z,98860.11
2023-04-12T12:49:20.894Z,98856.83
2023-04-12T12:51:50.495Z,98857.14
2023-04-12T12:54:32.108Z,98853.17
2023-04-12T12:57:07.440Z,98852.89
2023-04-12T12:59:37.572Z,98855.10
2023-04-12T13:02:07.673Z,98848.81
2023-04-12T13:04:39.300Z,98848.82
2023-04-12T13:07:09.133Z,98850.13
2023-04-12T13:09:38.033Z,98848.40
2023-04-12T13:12:11.020Z,98847.58
2023-04-12T13:14:42.286Z,98846.65
2023-04-12T13:17:11.008Z,98847.91
2023-04-12T13:19:48.307Z,98845.27
2023-04-12T13:22:17.006Z,98844.58
2023-04-12T13:24:45.544Z,98843.44
2023-04-12T13:27:23.822Z,98841.49
2023-04-12T13:29:53.076Z,98840.42
2023-04-12T13:32:21.429Z,98838.98
2023-04-12T13:34:50.960Z,98840.02
2023-04-12T13:37:19.237Z,98836.30
2023-04-12T13:39:47.810Z,98837.73
2023-04-12T13:42:17.533Z,98838.82
2023-04-12T13:44:46.240Z,98838.02
2023-04-12T13:47:20.318Z,98841.69
2023-04-12T13:49:49.007Z,98844.00
2023-04-12T13:52:17.657Z,98842.34
2023-04-12T13:54:47.674Z,98844.59
2023-04-12T13:57:16.564Z,98845.77
2023-04-12T13:59:50.883Z,98847.00
2023-04-12T14:02:19.333Z,98848.60
2023-04-12T14:04:52.919Z,98851.83
2023-04-12T14:07:21.977Z,98854.19
2023-04-12T14:09:51.159Z,98854.90
2023-04-12T14:12:19.872Z,98855.51
2023-04-12T14:14:48.222Z,98858.83
2023-04-12T14:17:16.454Z,98855.00
2023-04-12T14:19:45.496Z,98859.73
2023-04-12T14:22:14.399Z,98861.16
2023-04-12T14:24:48.800Z,98860.93
2023-04-12T14:27:18.226Z,98865.00
2023-04-12T14:29:47.097Z,98863.92
2023-04-12T14:32:17.553Z,98863.89
2023-04-12T14:34:46.725Z,98862.88
2023-04-12T14:37:14.969Z,98866.81
2023-04-12T14:39:45.193Z,98862.46
2023-04-12T14:42:13.579Z,98868.63
2023-04-12T14:44:45.436Z,98862.44
2023-04-12T14:47:13.714Z,98863.89
2023-04-12T14:49:43.625Z,98863.27
2023-04-12T14:52:16.829Z,98866.11
2023-04-12T14:54:46.526Z,98864.40
2023-04-12T14:57:15.622Z,98867.69
2023-04-12T14:59:45.907Z,98865.19
2023-04-12T15:02:14.695Z,98864.06
2023-04-12T15:04:43.339Z,98859.64
2023-04-12T15:07:13.234Z,98863.70
2023-04-12T15:09:44.222Z,98863.41
2023-04-12T15:12:12.758Z,98860.50
2023-04-12T15:14:47.697Z,98861.35
2023-04-12T15:17:19.477Z,98860.02
2023-04-12T15:19:48.138Z,98857.95
2023-04-12T15:22:20.920Z,98855.23
2023-04-12T15:24:49.711Z,98855.73
2023-04-12T15:27:20.036Z,98850.91
2023-04-12T15:29:48.721Z,98848.52
2023-04-12T15:32:17.293Z,98847.73
2023-04-12T15:34:45.891Z,98847.14
2023-04-12T15:37:14.589Z,98847.53
2023-04-12T15:39:43.075Z,98846.89
2023-04-12T15:42:12.268Z,98850.56
2023-04-12T15:44:42.283Z,98846.91
2023-04-12T15:47:11.867Z,98845.34
2023-04-12T15:49:41.184Z,98845.41
2023-04-12T15:52:09.456Z,98844.19
2023-04-12T15:54:43.535Z,98845.80
2023-04-12T15:57:12.613Z,98841.04
2023-04-12T15:59:41.260Z,98840.38
2023-04-12T16:02:10.798Z,98840.20
2023-04-12T16:04:40.718Z,98840.22
2023-04-12T16:07:09.360Z,98837.50
2023-04-12T16:09:40.105Z,98834.61
2023-04-12T16:12:08.680Z,98834.86
2023-04-12T16:14:38.335Z,98832.10
2023-04-12T16:17:09.189Z,98829.23
2023-04-12T16:19:38.540Z,98828.59
2023-04-12T16:22:09.100Z,98830.39
2023-04-12T16:24:41.641Z,98832.85
2023-04-12T16:27:10.077Z,98831.61
2023-04-12T16:29:39.106Z,98835.23
2023-04-12T16:32:15.122Z,98831.31
2023-04-12T16:34:44.874Z,98833.80
2023-04-12T16:37:13.467Z,98836.25
2023-04-12T16:39:49.662Z,98836.04
2023-04-12T16:42:18.160Z,98835.88
2023-04-12T16:44:47.148Z,98841.12
2023-04-12T16:47:17.812Z,98837.88
2023-04-12T16:49:46.167Z,98843.75
2023-04-12T16:52:15.766Z,98844.59
2023-04-12T16:54:46.695Z,98844.98
2023-04-12T16:57:15.783Z,98847.30
2023-04-12T16:59:46.086Z,98845.95
2023-04-12T17:02:19.556Z,98849.38
2023-04-12T17:04:48.676Z,98851.58
2023-04-12T17:07:17.535Z,98854.36
2023-04-12T17:09:46.894Z,98857.15
2023-04-12T17:12:15.977Z,98855.77
2023-04-12T17:14:44.224Z,98865.19
2023-04-12T17:17:15.610Z,98870.55
2023-04-12T17:19:44.880Z,98869.45
2023-04-12T17:22:13.726Z,98871.35
2023-04-12T17:24:44.674Z,98876.16
2023-04-12T17:27:13.264Z,98877.72
2023-04-12T17:29:41.743Z,98878.67
2023-04-12T17:32:18.601Z,98877.52
2023-04-12T17:34:47.364Z,98885.54
2023-04-12T17:39:44.482Z,98886.27
2023-04-12T17:42:12.845Z,98889.45
2023-04-12T17:44:41.335Z,98889.24
2023-04-12T17:47:15.068Z,98896.09
2023-04-12T17:49:44.795Z,98902.89
2023-04-12T17:52:14.557Z,98898.11
2023-04-12T17:54:43.414Z,98905.57
2023-04-12T17:57:11.958Z,98903.56
2023-04-12T17:59:40.276Z,98900.65
2023-04-12T18:02:10.845Z,98901.45
2023-04-12T18:04:41.327Z,98898.48
2023-04-12T18:07:11.652Z,98896.95
2023-04-12T18:09:44.901Z,98894.30
2023-04-12T18:12:14.012Z,98889.84
2023-04-12T18:14:44.766Z,98894.67
2023-04-12T18:17:14.723Z,98907.10
2023-04-12T18:19:45.831Z,98903.10
2023-04-12T18:22:14.355Z,98906.04
2023-04-12T18:24:43.183Z,98900.58
2023-04-12T18:27:11.351Z,98901.85
2023-04-12T18:29:39.925Z,98898.45
2023-04-12T18:32:08.097Z,98901.43
2023-04-12T18:34:36.993Z,98898.38
2023-04-12T18:37:06.294Z,98896.30
2023-04-12T18:39:36.859Z,98895.90
2023-04-12T18:42:05.817Z,98897.23
2023-04-12T18:44:34.818Z,98896.44
2023-04-12T18:47:03.182Z,98891.96
2023-04-12T18:49:32.494Z,98888.46
2023-04-12T18:52:01.286Z,98887.52
2023-04-12T18:54:29.762Z,98886.79
2023-04-12T18:57:01.137Z,98878.03
2023-04-12T18:59:30.295Z,98879.64
2023-04-12T19:02:04.929Z,98875.00
2023-04-12T19:04:34.252Z,98872.17
2023-04-12T19:07:02.424Z,98871.77
2023-04-12T19:09:31.721Z,98877.65
2023-04-12T19:12:00.614Z,98875.77
2023-04-12T19:14:30.773Z,98874.29
2023-04-12T19:16:59.212Z,98881.88
2023-04-12T19:19:29.433Z,98880.45
2023-04-12T19:21:57.715Z,98883.67
2023-04-12T19:24:26.194Z,98883.31
2023-04-12T19:26:54.476Z,98884.59
2023-04-12T19:29:23.158Z,98884.05
2023-04-12T19:31:53.988Z,98887.98
2023-04-12T19:34:24.211Z,98888.30
2023-04-12T19:36:52.494Z,98886.92
2023-04-12T19:39:23.124Z,98883.73
2023-04-12T19:41:51.809Z,98875.66
2023-04-12T19:44:20.191Z,98880.39
2023-04-12T19:46:48.978Z,98879.62
2023-04-12T19:49:17.156Z,98882.95
2023-04-12T19:51:46.462Z,98878.98
2023-04-12T19:54:15.039Z,98876.69
2023-04-12T19:56:49.459Z,98877.06
2023-04-12T19:59:18.147Z,98876.91
2023-04-12T20:01:49.124Z,98875.31
2023-04-12T20:04:20.053Z,98867.45
2023-04-12T20:06:55.981Z,98871.02
2023-04-12T20:09:25.689Z,98865.77
2023-04-12T20:11:54.374Z,98870.29
2023-04-12T20:14:26.898Z,98871.46
2023-04-12T20:16:58.486Z,98869.81
2023-04-12T20:19:27.401Z,98876.02
2023-04-12T20:22:02.178Z,98879.64
2023-04-12T20:24:30.608Z,98875.05
2023-04-12T20:26:58.895Z,98874.98
2023-04-12T20:29:30.604Z,98878.89
2023-04-12T20:31:58.926Z,98880.16
2023-04-12T20:34:27.985Z,98879.00
2023-04-12T20:36:57.424Z,98883.09
2023-04-12T20:39:26.890Z,98879.31
2023-04-12T20:42:01.122Z,98876.55
2023-04-12T20:44:31.492Z,98884.35
2023-04-12T20:47:03.655Z,98885.95
2023-04-12T20:49:33.385Z,98881.34
2023-04-12T20:52:02.318Z,98878.59
2023-04-12T20:54:32.730Z,98881.83
2023-04-12T20:57:04.500Z,98882.14
2023-04-12T20:59:37.577Z,98884.48
2023-04-12T21:02:09.515Z,98887.87
2023-04-12T21:04:39.518Z,98881.39
2023-04-12T21:07:09.784Z,98884.36
2023-04-12T21:09:39.857Z,98880.04
2023-04-12T21:12:08.872Z,98875.20
2023-04-12T21:14:50.469Z,98879.45
2023-04-12T21:17:22.565Z,98874.95
2023-04-12T21:19:51.273Z,98876.98
2023-04-12T21:22:25.050Z,98876.34
2023-04-12T21:24:53.521Z,98867.73
2023-04-12T21:27:21.894Z,98862.02
2023-04-12T21:29:52.298Z,98859.27
2023-04-12T21:32:21.207Z,98861.21
2023-04-12T21:34:50.423Z,98864.63
2023-04-12T21:37:18.601Z,98862.92
2023-04-12T21:39:47.666Z,98863.23
2023-04-12T21:42:16.505Z,98860.45
2023-04-12T21:44:45.090Z,98864.98
2023-04-12T21:47:13.694Z,98862.55
2023-04-12T21:49:45.704Z,98863.85
2023-04-12T21:52:16.029Z,98864.88
2023-04-12T21:54:46.129Z,98866.14
2023-04-12T21:57:16.027Z,98864.02
2023-04-12T21:59:46.325Z,98859.20
2023-04-12T22:02:15.714Z,98858.27
2023-04-12T22:04:44.775Z,98853.96
2023-04-12T22:07:17.392Z,98852.64
2023-04-12T22:09:46.087Z,98853.02
2023-04-12T22:12:20.633Z,98848.55
2023-04-12T22:15:00.650Z,98849.81
2023-04-12T22:17:31.188Z,98844.44
2023-04-12T22:20:01.081Z,98849.64
2023-04-12T22:22:30.121Z,98850.07
2023-04-12T22:25:00.483Z,98848.48
2023-04-12T22:27:28.897Z,98852.75
2023-04-12T22:29:58.598Z,98847.60
2023-04-12T22:32:27.889Z,98848.76
2023-04-12T22:35:05.386Z,98845.47
2023-04-12T22:37:40.777Z,98843.38
2023-04-12T22:40:13.957Z,98844.43
2023-04-12T22:42:48.374Z,98845.76
2023-04-12T22:45:18.794Z,98839.23
2023-04-12T22:47:49.232Z,98838.10
2023-04-12T22:50:18.172Z,98837.74
2023-04-12T22:52:50.239Z,98834.54
2023-04-12T22:55:19.359Z,98833.80
2023-04-12T22:57:48.435Z,98833.86
2023-04-12T23:00:18.367Z,98835.94
2023-04-12T23:02:48.946Z,98840.83
2023-04-12T23:05:17.778Z,98843.19
2023-04-12T23:07:47.511Z,98843.36
2023-04-12T23:10:15.786Z,98843.63
2023-04-12T23:12:44.063Z,98838.80
2023-04-12T23:15:19.136Z,98830.46
2023-04-12T23:17:50.352Z,98821.28
2023-04-12T23:20:19.267Z,98820.09
2023-04-12T23:23:05.853Z,98823.02
2023-04-12T23:25:41.956Z,98816.54
2023-04-12T23:28:14.445Z,98816.70
2023-04-12T23:30:45.198Z,98814.95
2023-04-12T23:33:13.544Z,98816.38
2023-04-12T23:35:42.216Z,98816.79
2023-04-12T23:38:23.512Z,98809.03
2023-04-12T23:40:54.360Z,98798.79
2023-04-12T23:43:23.421Z,98792.84
2023-04-12T23:45:52.338Z,98788.15
2023-04-12T23:48:21.978Z,98778.76
2023-04-12T23:50:51.462Z,98777.90
2023-04-12T23:53:20.832Z,98779.66
2023-04-12T23:55:51.414Z,98783.80
2023-04-12T23:58:19.873Z,98791.84
